sensor_id;sensor_type;location;lat;lon;timestamp;P1;durP1;ratioP1;P2;durP2;ratioP2
63801;SDS011;49949;43.060;25.624;2022-12-07T00:00:52;0.80;;;0.75;;
63801;SDS011;49949;43.060;25.624;2022-12-07T00:03:18;0.10;;;0.10;;
63801;SDS011;49949;43.060;25.624;2022-12-07T00:05:44;0.10;;;0.10;;
63801;SDS011;49949;43.060;25.624;2022-12-07T00:08:10;0.45;;;0.45;;
63801;SDS011;49949;43.060;25.624;2022-12-07T00:10:35;0.10;;;0.10;;
63801;SDS011;49949;43.060;25.624;2022-12-07T00:13:01;1.55;;;0.73;;
63801;SDS011;49949;43.060;25.624;2022-12-07T00:15:27;0.30;;;0.30;;
63801;SDS011;49949;43.060;25.624;2022-12-07T00:17:52;0.32;;;0.32;;
63801;SDS011;49949;43.060;25.624;2022-12-07T00:20:18;0.10;;;0.10;;
63801;SDS011;49949;43.060;25.624;2022-12-07T00:22:44;0.10;;;0.10;;
63801;SDS011;49949;43.060;25.624;2022-12-07T00:25:09;0.10;;;0.10;;
63801;SDS011;49949;43.060;25.624;2022-12-07T00:27:35;0.43;;;0.28;;
63801;SDS011;49949;43.060;25.624;2022-12-07T00:30:01;0.13;;;0.13;;
63801;SDS011;49949;43.060;25.624;2022-12-07T00:32:27;0.10;;;0.10;;
63801;SDS011;49949;43.060;25.624;2022-12-07T00:34:53;0.20;;;0.20;;
63801;SDS011;49949;43.060;25.624;2022-12-07T00:37:18;0.00;;;0.00;;
63801;SDS011;49949;43.060;25.624;2022-12-07T00:39:45;0.00;;;0.00;;
63801;SDS011;49949;43.060;25.624;2022-12-07T00:42:11;0.20;;;0.20;;
63801;SDS011;49949;43.060;25.624;2022-12-07T00:44:37;0.10;;;0.10;;
63801;SDS011;49949;43.060;25.624;2022-12-07T00:47:02;0.10;;;0.10;;
63801;SDS011;49949;43.060;25.624;2022-12-07T00:49:28;0.10;;;0.10;;
63801;SDS011;49949;43.060;25.624;2022-12-07T00:51:54;0.10;;;0.10;;
63801;SDS011;49949;43.060;25.624;2022-12-07T00:54:19;0.10;;;0.10;;
63801;SDS011;49949;43.060;25.624;2022-12-07T00:56:45;0.17;;;0.17;;
63801;SDS011;49949;43.060;25.624;2022-12-07T00:59:12;0.10;;;0.10;;
63801;SDS011;49949;43.060;25.624;2022-12-07T01:01:41;0.10;;;0.10;;
63801;SDS011;49949;43.060;25.624;2022-12-07T01:04:07;0.30;;;0.30;;
63801;SDS011;49949;43.060;25.624;2022-12-07T01:06:33;0.10;;;0.10;;
63801;SDS011;49949;43.060;25.624;2022-12-07T01:08:59;0.10;;;0.10;;
63801;SDS011;49949;43.060;25.624;2022-12-07T01:11:27;0.17;;;0.17;;
63801;SDS011;49949;43.060;25.624;2022-12-07T01:13:55;0.35;;;0.35;;
63801;SDS011;49949;43.060;25.624;2022-12-07T01:16:23;0.10;;;0.10;;
63801;SDS011;49949;43.060;25.624;2022-12-07T01:18:51;0.10;;;0.10;;
63801;SDS011;49949;43.060;25.624;2022-12-07T01:21:19;0.10;;;0.10;;
63801;SDS011;49949;43.060;25.624;2022-12-07T01:26:17;0.20;;;0.20;;
63801;SDS011;49949;43.060;25.624;2022-12-07T01:28:44;0.10;;;0.10;;
63801;SDS011;49949;43.060;25.624;2022-12-07T01:31:12;0.10;;;0.10;;
63801;SDS011;49949;43.060;25.624;2022-12-07T01:33:46;0.25;;;0.25;;
63801;SDS011;49949;43.060;25.624;2022-12-07T01:36:15;0.10;;;0.10;;
63801;SDS011;49949;43.060;25.624;2022-12-07T01:38:43;0.10;;;0.10;;
63801;SDS011;49949;43.060;25.624;2022-12-07T01:41:10;0.10;;;0.10;;
63801;SDS011;49949;43.060;25.624;2022-12-07T01:43:36;0.32;;;0.32;;
63801;SDS011;49949;43.060;25.624;2022-12-07T01:46:22;0.10;;;0.10;;
63801;SDS011;49949;43.060;25.624;2022-12-07T01:48:48;0.08;;;0.08;;
63801;SDS011;49949;43.060;25.624;2022-12-07T01:51:14;0.10;;;0.10;;
63801;SDS011;49949;43.060;25.624;2022-12-07T01:53:42;0.80;;;0.40;;
63801;SDS011;49949;43.060;25.624;2022-12-07T01:56:11;0.20;;;0.20;;
63801;SDS011;49949;43.060;25.624;2022-12-07T01:58:42;0.10;;;0.10;;
63801;SDS011;49949;43.060;25.624;2022-12-07T02:01:08;0.10;;;0.10;;
63801;SDS011;49949;43.060;25.624;2022-12-07T02:03:38;0.28;;;0.28;;
63801;SDS011;49949;43.060;25.624;2022-12-07T02:06:06;0.10;;;0.10;;
63801;SDS011;49949;43.060;25.624;2022-12-07T02:08:33;0.10;;;0.10;;
63801;SDS011;49949;43.060;25.624;2022-12-07T02:10:59;0.20;;;0.20;;
63801;SDS011;49949;43.060;25.624;2022-12-07T02:13:30;0.10;;;0.10;;
63801;SDS011;49949;43.060;25.624;2022-12-07T02:32:27;0.20;;;0.20;;
63801;SDS011;49949;43.060;25.624;2022-12-07T02:35:11;1.23;;;1.17;;
63801;SDS011;49949;43.060;25.624;2022-12-07T02:37:58;0.10;;;0.10;;
63801;SDS011;49949;43.060;25.624;2022-12-07T02:40:35;0.10;;;0.10;;
63801;SDS011;49949;43.060;25.624;2022-12-07T02:43:25;0.10;;;0.10;;
63801;SDS011;49949;43.060;25.624;2022-12-07T02:46:06;0.08;;;0.08;;
63801;SDS011;49949;43.060;25.624;2022-12-07T02:48:36;0.10;;;0.10;;
63801;SDS011;49949;43.060;25.624;2022-12-07T02:51:04;0.10;;;0.10;;
63801;SDS011;49949;43.060;25.624;2022-12-07T03:01:47;0.10;;;0.10;;
63801;SDS011;49949;43.060;25.624;2022-12-07T03:10:02;0.10;;;0.10;;
63801;SDS011;49949;43.060;25.624;2022-12-07T03:12:44;0.10;;;0.10;;
63801;SDS011;49949;43.060;25.624;2022-12-07T03:15:22;0.10;;;0.10;;
63801;SDS011;49949;43.060;25.624;2022-12-07T03:18:16;0.10;;;0.10;;
63801;SDS011;49949;43.060;25.624;2022-12-07T03:20:44;0.15;;;0.15;;
63801;SDS011;49949;43.060;25.624;2022-12-07T03:23:13;0.10;;;0.10;;
63801;SDS011;49949;43.060;25.624;2022-12-07T03:25:45;0.98;;;0.98;;
63801;SDS011;49949;43.060;25.624;2022-12-07T03:28:14;0.20;;;0.20;;
63801;SDS011;49949;43.060;25.624;2022-12-07T03:33:26;0.32;;;0.32;;
63801;SDS011;49949;43.060;25.624;2022-12-07T03:36:05;0.10;;;0.10;;
63801;SDS011;49949;43.060;25.624;2022-12-07T03:43:35;0.20;;;0.20;;
63801;SDS011;49949;43.060;25.624;2022-12-07T03:46:13;0.10;;;0.10;;
63801;SDS011;49949;43.060;25.624;2022-12-07T03:49:05;1.23;;;0.65;;
63801;SDS011;49949;43.060;25.624;2022-12-07T03:51:49;0.10;;;0.10;;
63801;SDS011;49949;43.060;25.624;2022-12-07T03:54:26;0.10;;;0.10;;
63801;SDS011;49949;43.060;25.624;2022-12-07T03:57:02;0.10;;;0.10;;
63801;SDS011;49949;43.060;25.624;2022-12-07T03:59:29;3.72;;;1.00;;
63801;SDS011;49949;43.060;25.624;2022-12-07T04:01:56;0.30;;;0.30;;
63801;SDS011;49949;43.060;25.624;2022-12-07T04:04:26;0.15;;;0.15;;
63801;SDS011;49949;43.060;25.624;2022-12-07T04:06:53;0.13;;;0.13;;
63801;SDS011;49949;43.060;25.624;2022-12-07T04:09:19;0.90;;;0.90;;
63801;SDS011;49949;43.060;25.624;2022-12-07T04:11:44;1.95;;;1.23;;
63801;SDS011;49949;43.060;25.624;2022-12-07T04:14:10;0.20;;;0.20;;
63801;SDS011;49949;43.060;25.624;2022-12-07T04:16:49;0.60;;;0.60;;
63801;SDS011;49949;43.060;25.624;2022-12-07T04:19:24;0.47;;;0.47;;
63801;SDS011;49949;43.060;25.624;2022-12-07T04:21:52;0.25;;;0.25;;
63801;SDS011;49949;43.060;25.624;2022-12-07T04:24:18;0.10;;;0.10;;
63801;SDS011;49949;43.060;25.624;2022-12-07T04:26:44;0.35;;;0.35;;
63801;SDS011;49949;43.060;25.624;2022-12-07T04:29:10;0.20;;;0.20;;
63801;SDS011;49949;43.060;25.624;2022-12-07T04:31:37;0.10;;;0.10;;
63801;SDS011;49949;43.060;25.624;2022-12-07T04:34:03;1.75;;;1.45;;
63801;SDS011;49949;43.060;25.624;2022-12-07T04:36:30;0.10;;;0.10;;
63801;SDS011;49949;43.060;25.624;2022-12-07T04:38:56;0.22;;;0.22;;
63801;SDS011;49949;43.060;25.624;2022-12-07T04:41:22;0.30;;;0.30;;
63801;SDS011;49949;43.060;25.624;2022-12-07T04:44:02;0.00;;;0.00;;
63801;SDS011;49949;43.060;25.624;2022-12-07T04:46:29;0.35;;;0.35;;
63801;SDS011;49949;43.060;25.624;2022-12-07T04:48:57;0.73;;;0.73;;
63801;SDS011;49949;43.060;25.624;2022-12-07T04:51:26;0.10;;;0.10;;
63801;SDS011;49949;43.060;25.624;2022-12-07T04:53:54;0.20;;;0.20;;
63801;SDS011;49949;43.060;25.624;2022-12-07T04:56:21;0.50;;;0.50;;
63801;SDS011;49949;43.060;25.624;2022-12-07T04:58:47;0.85;;;0.85;;
63801;SDS011;49949;43.060;25.624;2022-12-07T05:01:14;0.10;;;0.10;;
63801;SDS011;49949;43.060;25.624;2022-12-07T05:03:41;0.60;;;0.50;;
63801;SDS011;49949;43.060;25.624;2022-12-07T05:06:07;1.05;;;1.05;;
63801;SDS011;49949;43.060;25.624;2022-12-07T05:08:34;0.13;;;0.13;;
63801;SDS011;49949;43.060;25.624;2022-12-07T05:11:00;0.10;;;0.10;;
63801;SDS011;49949;43.060;25.624;2022-12-07T05:13:27;1.55;;;0.73;;
63801;SDS011;49949;43.060;25.624;2022-12-07T05:15:53;0.20;;;0.20;;
63801;SDS011;49949;43.060;25.624;2022-12-07T05:18:19;0.20;;;0.20;;
63801;SDS011;49949;43.060;25.624;2022-12-07T05:20:44;0.10;;;0.10;;
63801;SDS011;49949;43.060;25.624;2022-12-07T05:23:10;0.10;;;0.10;;
63801;SDS011;49949;43.060;25.624;2022-12-07T05:25:36;0.10;;;0.10;;
63801;SDS011;49949;43.060;25.624;2022-12-07T05:28:03;0.25;;;0.25;;
63801;SDS011;49949;43.060;25.624;2022-12-07T05:30:29;0.10;;;0.10;;
63801;SDS011;49949;43.060;25.624;2022-12-07T05:32:55;4.53;;;0.90;;
63801;SDS011;49949;43.060;25.624;2022-12-07T05:35:20;0.10;;;0.10;;
63801;SDS011;49949;43.060;25.624;2022-12-07T05:37:46;0.32;;;0.32;;
63801;SDS011;49949;43.060;25.624;2022-12-07T05:40:13;0.57;;;0.57;;
63801;SDS011;49949;43.060;25.624;2022-12-07T05:42:40;0.40;;;0.40;;
63801;SDS011;49949;43.060;25.624;2022-12-07T05:45:06;0.00;;;0.00;;
63801;SDS011;49949;43.060;25.624;2022-12-07T05:47:32;0.10;;;0.10;;
63801;SDS011;49949;43.060;25.624;2022-12-07T05:49:58;0.10;;;0.10;;
63801;SDS011;49949;43.060;25.624;2022-12-07T05:52:24;0.10;;;0.10;;
63801;SDS011;49949;43.060;25.624;2022-12-07T05:54:49;0.10;;;0.10;;
63801;SDS011;49949;43.060;25.624;2022-12-07T05:57:15;1.48;;;0.90;;
63801;SDS011;49949;43.060;25.624;2022-12-07T05:59:41;0.10;;;0.10;;
63801;SDS011;49949;43.060;25.624;2022-12-07T06:02:11;0.10;;;0.10;;
63801;SDS011;49949;43.060;25.624;2022-12-07T06:04:41;0.10;;;0.10;;
63801;SDS011;49949;43.060;25.624;2022-12-07T06:07:09;0.40;;;0.30;;
63801;SDS011;49949;43.060;25.624;2022-12-07T06:09:35;0.10;;;0.10;;
63801;SDS011;49949;43.060;25.624;2022-12-07T06:12:01;0.10;;;0.10;;
63801;SDS011;49949;43.060;25.624;2022-12-07T06:14:46;0.10;;;0.10;;
63801;SDS011;49949;43.060;25.624;2022-12-07T06:17:12;0.10;;;0.10;;
63801;SDS011;49949;43.060;25.624;2022-12-07T06:19:38;0.10;;;0.10;;
63801;SDS011;49949;43.060;25.624;2022-12-07T06:22:04;0.10;;;0.10;;
63801;SDS011;49949;43.060;25.624;2022-12-07T06:24:31;0.10;;;0.10;;
63801;SDS011;49949;43.060;25.624;2022-12-07T06:26:57;0.10;;;0.10;;
63801;SDS011;49949;43.060;25.624;2022-12-07T06:29:23;0.17;;;0.17;;
63801;SDS011;49949;43.060;25.624;2022-12-07T06:31:49;0.10;;;0.10;;
63801;SDS011;49949;43.060;25.624;2022-12-07T06:34:18;0.20;;;0.20;;
63801;SDS011;49949;43.060;25.624;2022-12-07T06:36:45;0.10;;;0.10;;
63801;SDS011;49949;43.060;25.624;2022-12-07T06:39:16;0.10;;;0.10;;
63801;SDS011;49949;43.060;25.624;2022-12-07T06:41:45;0.65;;;0.65;;
63801;SDS011;49949;43.060;25.624;2022-12-07T06:44:11;0.10;;;0.10;;
63801;SDS011;49949;43.060;25.624;2022-12-07T06:46:37;0.17;;;0.17;;
63801;SDS011;49949;43.060;25.624;2022-12-07T06:49:04;0.10;;;0.10;;
63801;SDS011;49949;43.060;25.624;2022-12-07T06:51:30;0.10;;;0.10;;
63801;SDS011;49949;43.060;25.624;2022-12-07T06:53:56;0.47;;;0.32;;
63801;SDS011;49949;43.060;25.624;2022-12-07T06:56:22;0.10;;;0.10;;
63801;SDS011;49949;43.060;25.624;2022-12-07T06:58:48;0.10;;;0.10;;
63801;SDS011;49949;43.060;25.624;2022-12-07T07:01:14;0.10;;;0.10;;
63801;SDS011;49949;43.060;25.624;2022-12-07T07:03:42;0.20;;;0.20;;
63801;SDS011;49949;43.060;25.624;2022-12-07T07:06:09;0.20;;;0.20;;
63801;SDS011;49949;43.060;25.624;2022-12-07T07:08:36;0.75;;;0.75;;
63801;SDS011;49949;43.060;25.624;2022-12-07T07:11:03;0.10;;;0.10;;
63801;SDS011;49949;43.060;25.624;2022-12-07T07:13:29;0.10;;;0.10;;
63801;SDS011;49949;43.060;25.624;2022-12-07T07:15:55;0.10;;;0.10;;
63801;SDS011;49949;43.060;25.624;2022-12-07T07:18:20;0.10;;;0.10;;
63801;SDS011;49949;43.060;25.624;2022-12-07T07:20:46;0.17;;;0.17;;
63801;SDS011;49949;43.060;25.624;2022-12-07T07:23:12;0.10;;;0.10;;
63801;SDS011;49949;43.060;25.624;2022-12-07T07:25:38;0.10;;;0.10;;
63801;SDS011;49949;43.060;25.624;2022-12-07T07:28:04;0.20;;;0.20;;
63801;SDS011;49949;43.060;25.624;2022-12-07T07:30:30;0.20;;;0.20;;
63801;SDS011;49949;43.060;25.624;2022-12-07T07:32:59;0.10;;;0.10;;
63801;SDS011;49949;43.060;25.624;2022-12-07T07:35:27;0.10;;;0.10;;
63801;SDS011;49949;43.060;25.624;2022-12-07T07:37:53;0.10;;;0.10;;
63801;SDS011;49949;43.060;25.624;2022-12-07T07:40:20;0.28;;;0.28;;
63801;SDS011;49949;43.060;25.624;2022-12-07T07:42:49;0.00;;;0.00;;
63801;SDS011;49949;43.060;25.624;2022-12-07T07:45:16;0.77;;;0.77;;
63801;SDS011;49949;43.060;25.624;2022-12-07T07:47:42;0.17;;;0.17;;
63801;SDS011;49949;43.060;25.624;2022-12-07T07:50:08;0.10;;;0.10;;
63801;SDS011;49949;43.060;25.624;2022-12-07T07:52:34;0.15;;;0.15;;
63801;SDS011;49949;43.060;25.624;2022-12-07T07:55:00;0.03;;;0.03;;
63801;SDS011;49949;43.060;25.624;2022-12-07T07:57:25;0.00;;;0.00;;
63801;SDS011;49949;43.060;25.624;2022-12-07T07:59:52;0.10;;;0.10;;
63801;SDS011;49949;43.060;25.624;2022-12-07T08:02:18;0.03;;;0.03;;
63801;SDS011;49949;43.060;25.624;2022-12-07T08:04:46;0.00;;;0.00;;
63801;SDS011;49949;43.060;25.624;2022-12-07T08:07:11;0.00;;;0.00;;
63801;SDS011;49949;43.060;25.624;2022-12-07T08:09:38;0.00;;;0.00;;
63801;SDS011;49949;43.060;25.624;2022-12-07T08:12:04;0.08;;;0.08;;
63801;SDS011;49949;43.060;25.624;2022-12-07T08:14:30;0.65;;;0.65;;
63801;SDS011;49949;43.060;25.624;2022-12-07T08:16:56;0.10;;;0.10;;
63801;SDS011;49949;43.060;25.624;2022-12-07T08:19:21;0.00;;;0.00;;
63801;SDS011;49949;43.060;25.624;2022-12-07T08:21:47;0.10;;;0.10;;
63801;SDS011;49949;43.060;25.624;2022-12-07T08:24:13;0.20;;;0.20;;
63801;SDS011;49949;43.060;25.624;2022-12-07T08:26:39;0.10;;;0.10;;
63801;SDS011;49949;43.060;25.624;2022-12-07T08:29:05;0.10;;;0.10;;
63801;SDS011;49949;43.060;25.624;2022-12-07T08:31:30;1.48;;;0.30;;
63801;SDS011;49949;43.060;25.624;2022-12-07T08:33:56;0.25;;;0.25;;
63801;SDS011;49949;43.060;25.624;2022-12-07T08:36:22;0.25;;;0.25;;
63801;SDS011;49949;43.060;25.624;2022-12-07T08:38:48;0.35;;;0.35;;
63801;SDS011;49949;43.060;25.624;2022-12-07T08:41:15;0.30;;;0.30;;
63801;SDS011;49949;43.060;25.624;2022-12-07T08:43:41;0.10;;;0.10;;
63801;SDS011;49949;43.060;25.624;2022-12-07T08:49:04;0.03;;;0.03;;
63801;SDS011;49949;43.060;25.624;2022-12-07T08:51:40;0.03;;;0.03;;
63801;SDS011;49949;43.060;25.624;2022-12-07T08:54:07;0.10;;;0.10;;
63801;SDS011;49949;43.060;25.624;2022-12-07T08:56:35;0.90;;;0.35;;
63801;SDS011;49949;43.060;25.624;2022-12-07T08:59:01;0.15;;;0.15;;
63801;SDS011;49949;43.060;25.624;2022-12-07T09:01:28;0.00;;;0.00;;
63801;SDS011;49949;43.060;25.624;2022-12-07T09:03:53;0.93;;;0.55;;
63801;SDS011;49949;43.060;25.624;2022-12-07T09:06:19;0.10;;;0.10;;
63801;SDS011;49949;43.060;25.624;2022-12-07T09:08:46;0.20;;;0.20;;
63801;SDS011;49949;43.060;25.624;2022-12-07T09:11:14;0.10;;;0.10;;
63801;SDS011;49949;43.060;25.624;2022-12-07T09:13:40;0.50;;;0.50;;
63801;SDS011;49949;43.060;25.624;2022-12-07T09:16:06;0.68;;;0.68;;
63801;SDS011;49949;43.060;25.624;2022-12-07T09:18:31;0.38;;;0.38;;
63801;SDS011;49949;43.060;25.624;2022-12-07T09:20:57;0.05;;;0.05;;
63801;SDS011;49949;43.060;25.624;2022-12-07T09:23:23;0.10;;;0.10;;
63801;SDS011;49949;43.060;25.624;2022-12-07T09:25:49;0.05;;;0.05;;
63801;SDS011;49949;43.060;25.624;2022-12-07T09:28:14;0.15;;;0.15;;
63801;SDS011;49949;43.060;25.624;2022-12-07T09:30:46;0.10;;;0.10;;
63801;SDS011;49949;43.060;25.624;2022-12-07T09:33:13;0.00;;;0.00;;
63801;SDS011;49949;43.060;25.624;2022-12-07T09:35:45;0.10;;;0.10;;
63801;SDS011;49949;43.060;25.624;2022-12-07T09:38:15;0.00;;;0.00;;
63801;SDS011;49949;43.060;25.624;2022-12-07T09:40:41;0.00;;;0.00;;
63801;SDS011;49949;43.060;25.624;2022-12-07T09:43:26;0.82;;;0.50;;
63801;SDS011;49949;43.060;25.624;2022-12-07T09:45:53;0.32;;;0.32;;
63801;SDS011;49949;43.060;25.624;2022-12-07T09:48:21;0.82;;;0.82;;
63801;SDS011;49949;43.060;25.624;2022-12-07T09:51:02;0.22;;;0.22;;
63801;SDS011;49949;43.060;25.624;2022-12-07T09:53:37;0.10;;;0.10;;
63801;SDS011;49949;43.060;25.624;2022-12-07T09:56:03;0.00;;;0.00;;
63801;SDS011;49949;43.060;25.624;2022-12-07T09:58:30;0.17;;;0.17;;
63801;SDS011;49949;43.060;25.624;2022-12-07T10:03:32;0.15;;;0.15;;
63801;SDS011;49949;43.060;25.624;2022-12-07T10:05:59;0.30;;;0.30;;
63801;SDS011;49949;43.060;25.624;2022-12-07T10:08:25;0.20;;;0.20;;
63801;SDS011;49949;43.060;25.624;2022-12-07T10:10:52;0.15;;;0.15;;
63801;SDS011;49949;43.060;25.624;2022-12-07T10:16:06;0.55;;;0.43;;
63801;SDS011;49949;43.060;25.624;2022-12-07T10:18:49;0.40;;;0.40;;
63801;SDS011;49949;43.060;25.624;2022-12-07T10:21:23;0.17;;;0.17;;
63801;SDS011;49949;43.060;25.624;2022-12-07T10:24:03;0.08;;;0.08;;
63801;SDS011;49949;43.060;25.624;2022-12-07T10:29:21;0.38;;;0.38;;
63801;SDS011;49949;43.060;25.624;2022-12-07T10:34:26;0.40;;;0.40;;
63801;SDS011;49949;43.060;25.624;2022-12-07T10:37:33;0.35;;;0.20;;
63801;SDS011;49949;43.060;25.624;2022-12-07T10:39:56;0.05;;;0.05;;
63801;SDS011;49949;43.060;25.624;2022-12-07T10:42:23;0.15;;;0.15;;
63801;SDS011;49949;43.060;25.624;2022-12-07T10:44:50;0.35;;;0.35;;
63801;SDS011;49949;43.060;25.624;2022-12-07T10:55:45;2.20;;;0.70;;
63801;SDS011;49949;43.060;25.624;2022-12-07T11:06:46;0.10;;;0.10;;
63801;SDS011;49949;43.060;25.624;2022-12-07T11:12:10;0.55;;;0.55;;
63801;SDS011;49949;43.060;25.624;2022-12-07T11:14:59;0.22;;;0.22;;
63801;SDS011;49949;43.060;25.624;2022-12-07T11:28:52;0.00;;;0.00;;
63801;SDS011;49949;43.060;25.624;2022-12-07T11:31:38;0.40;;;0.38;;
63801;SDS011;49949;43.060;25.624;2022-12-07T11:37:01;2.47;;;0.88;;
63801;SDS011;49949;43.060;25.624;2022-12-07T11:39:35;0.28;;;0.28;;
63801;SDS011;49949;43.060;25.624;2022-12-07T11:42:15;0.00;;;0.00;;
63801;SDS011;49949;43.060;25.624;2022-12-07T11:44:50;0.88;;;0.63;;
63801;SDS011;49949;43.060;25.624;2022-12-07T11:50:40;0.10;;;0.10;;
63801;SDS011;49949;43.060;25.624;2022-12-07T11:56:16;0.40;;;0.40;;
63801;SDS011;49949;43.060;25.624;2022-12-07T12:03:58;0.47;;;0.47;;
63801;SDS011;49949;43.060;25.624;2022-12-07T12:06:29;25.00;;;11.90;;
63801;SDS011;49949;43.060;25.624;2022-12-07T12:22:43;18.20;;;9.32;;
63801;SDS011;49949;43.060;25.624;2022-12-07T12:25:22;15.68;;;8.98;;
63801;SDS011;49949;43.060;25.624;2022-12-07T12:27:53;20.38;;;8.80;;
63801;SDS011;49949;43.060;25.624;2022-12-07T12:30:39;15.77;;;8.18;;
63801;SDS011;49949;43.060;25.624;2022-12-07T12:35:46;15.75;;;8.93;;
63801;SDS011;49949;43.060;25.624;2022-12-07T12:44:08;18.05;;;9.15;;
63801;SDS011;49949;43.060;25.624;2022-12-07T12:46:55;18.55;;;8.50;;
63801;SDS011;49949;43.060;25.624;2022-12-07T12:54:29;16.40;;;9.02;;
63801;SDS011;49949;43.060;25.624;2022-12-07T12:59:35;24.48;;;9.35;;
63801;SDS011;49949;43.060;25.624;2022-12-07T13:02:24;15.77;;;8.95;;
63801;SDS011;49949;43.060;25.624;2022-12-07T13:15:52;20.75;;;8.52;;
63801;SDS011;49949;43.060;25.624;2022-12-07T13:20:49;19.55;;;9.00;;
63801;SDS011;49949;43.060;25.624;2022-12-07T13:23:32;18.92;;;8.35;;
63801;SDS011;49949;43.060;25.624;2022-12-07T13:34:27;23.25;;;10.23;;
63801;SDS011;49949;43.060;25.624;2022-12-07T13:37:14;15.43;;;7.78;;
63801;SDS011;49949;43.060;25.624;2022-12-07T13:39:47;15.93;;;7.97;;
63801;SDS011;49949;43.060;25.624;2022-12-07T13:42:36;18.23;;;8.20;;
63801;SDS011;49949;43.060;25.624;2022-12-07T13:48:36;18.88;;;8.73;;
63801;SDS011;49949;43.060;25.624;2022-12-07T13:51:21;12.90;;;8.07;;
63801;SDS011;49949;43.060;25.624;2022-12-07T13:53:50;15.68;;;7.40;;
63801;SDS011;49949;43.060;25.624;2022-12-07T13:56:18;13.88;;;6.85;;
63801;SDS011;49949;43.060;25.624;2022-12-07T13:58:47;22.50;;;9.45;;
63801;SDS011;49949;43.060;25.624;2022-12-07T14:01:13;21.55;;;10.43;;
63801;SDS011;49949;43.060;25.624;2022-12-07T14:03:39;32.75;;;13.82;;
63801;SDS011;49949;43.060;25.624;2022-12-07T14:06:15;28.77;;;11.63;;
63801;SDS011;49949;43.060;25.624;2022-12-07T14:11:47;16.70;;;8.15;;
63801;SDS011;49949;43.060;25.624;2022-12-07T14:14:19;18.27;;;9.45;;
63801;SDS011;49949;43.060;25.624;2022-12-07T14:17:09;22.27;;;10.82;;
63801;SDS011;49949;43.060;25.624;2022-12-07T14:22:22;23.38;;;10.18;;
63801;SDS011;49949;43.060;25.624;2022-12-07T14:24:57;21.47;;;9.90;;
63801;SDS011;49949;43.060;25.624;2022-12-07T14:27:30;22.15;;;10.52;;
63801;SDS011;49949;43.060;25.624;2022-12-07T14:29:59;25.13;;;11.25;;
63801;SDS011;49949;43.060;25.624;2022-12-07T14:32:27;23.70;;;10.73;;
63801;SDS011;49949;43.060;25.624;2022-12-07T14:35:08;23.80;;;11.02;;
63801;SDS011;49949;43.060;25.624;2022-12-07T14:37:35;17.98;;;10.65;;
63801;SDS011;49949;43.060;25.624;2022-12-07T14:40:02;22.52;;;10.40;;
63801;SDS011;49949;43.060;25.624;2022-12-07T14:42:29;27.80;;;12.55;;
63801;SDS011;49949;43.060;25.624;2022-12-07T14:44:56;31.17;;;11.52;;
63801;SDS011;49949;43.060;25.624;2022-12-07T14:47:23;26.98;;;11.95;;
63801;SDS011;49949;43.060;25.624;2022-12-07T14:49:49;27.20;;;11.32;;
63801;SDS011;49949;43.060;25.624;2022-12-07T14:54:45;29.83;;;12.32;;
63801;SDS011;49949;43.060;25.624;2022-12-07T14:57:11;142.05;;;16.55;;
63801;SDS011;49949;43.060;25.624;2022-12-07T14:59:37;26.02;;;11.38;;
63801;SDS011;49949;43.060;25.624;2022-12-07T15:02:03;28.33;;;13.10;;
63801;SDS011;49949;43.060;25.624;2022-12-07T15:04:29;27.48;;;11.70;;
63801;SDS011;49949;43.060;25.624;2022-12-07T15:07:04;25.75;;;10.73;;
63801;SDS011;49949;43.060;25.624;2022-12-07T15:09:34;28.58;;;12.85;;
63801;SDS011;49949;43.060;25.624;2022-12-07T15:11:59;31.48;;;14.32;;
63801;SDS011;49949;43.060;25.624;2022-12-07T15:14:25;37.05;;;13.15;;
63801;SDS011;49949;43.060;25.624;2022-12-07T15:16:51;38.33;;;15.43;;
63801;SDS011;49949;43.060;25.624;2022-12-07T15:19:17;26.73;;;12.02;;
63801;SDS011;49949;43.060;25.624;2022-12-07T15:21:49;32.65;;;12.57;;
63801;SDS011;49949;43.060;25.624;2022-12-07T15:24:15;24.23;;;10.93;;
63801;SDS011;49949;43.060;25.624;2022-12-07T15:26:41;20.50;;;10.82;;
63801;SDS011;49949;43.060;25.624;2022-12-07T15:29:07;19.95;;;10.23;;
63801;SDS011;49949;43.060;25.624;2022-12-07T15:31:33;28.33;;;13.60;;
63801;SDS011;49949;43.060;25.624;2022-12-07T15:34:00;24.33;;;12.35;;
63801;SDS011;49949;43.060;25.624;2022-12-07T15:36:26;32.72;;;12.82;;
63801;SDS011;49949;43.060;25.624;2022-12-07T15:38:53;51.20;;;15.02;;
63801;SDS011;49949;43.060;25.624;2022-12-07T15:41:19;34.63;;;13.15;;
63801;SDS011;49949;43.060;25.624;2022-12-07T15:43:45;38.97;;;13.95;;
63801;SDS011;49949;43.060;25.624;2022-12-07T15:46:34;35.70;;;14.02;;
63801;SDS011;49949;43.060;25.624;2022-12-07T15:49:02;49.35;;;14.57;;
63801;SDS011;49949;43.060;25.624;2022-12-07T15:51:29;28.73;;;12.27;;
63801;SDS011;49949;43.060;25.624;2022-12-07T15:53:56;43.15;;;14.02;;
63801;SDS011;49949;43.060;25.624;2022-12-07T15:56:22;21.75;;;10.32;;
63801;SDS011;49949;43.060;25.624;2022-12-07T15:58:48;32.47;;;11.80;;
63801;SDS011;49949;43.060;25.624;2022-12-07T16:01:15;32.38;;;12.38;;
63801;SDS011;49949;43.060;25.624;2022-12-07T16:03:44;24.92;;;11.48;;
63801;SDS011;49949;43.060;25.624;2022-12-07T16:06:11;26.15;;;10.65;;
63801;SDS011;49949;43.060;25.624;2022-12-07T16:08:41;33.75;;;16.08;;
63801;SDS011;49949;43.060;25.624;2022-12-07T16:11:10;35.33;;;10.90;;
63801;SDS011;49949;43.060;25.624;2022-12-07T16:13:36;30.45;;;10.80;;
63801;SDS011;49949;43.060;25.624;2022-12-07T16:16:03;45.53;;;11.98;;
63801;SDS011;49949;43.060;25.624;2022-12-07T16:18:30;40.70;;;13.95;;
63801;SDS011;49949;43.060;25.624;2022-12-07T16:20:56;30.70;;;10.93;;
63801;SDS011;49949;43.060;25.624;2022-12-07T16:23:22;28.45;;;10.82;;
63801;SDS011;49949;43.060;25.624;2022-12-07T16:25:47;42.53;;;11.90;;
63801;SDS011;49949;43.060;25.624;2022-12-07T16:28:13;56.80;;;14.25;;
63801;SDS011;49949;43.060;25.624;2022-12-07T16:30:39;43.83;;;13.70;;
63801;SDS011;49949;43.060;25.624;2022-12-07T16:33:04;38.25;;;12.30;;
63801;SDS011;49949;43.060;25.624;2022-12-07T16:35:30;29.20;;;11.27;;
63801;SDS011;49949;43.060;25.624;2022-12-07T16:37:56;30.92;;;11.13;;
63801;SDS011;49949;43.060;25.624;2022-12-07T16:40:21;31.90;;;12.43;;
63801;SDS011;49949;43.060;25.624;2022-12-07T16:42:47;33.42;;;12.73;;
63801;SDS011;49949;43.060;25.624;2022-12-07T16:45:13;32.65;;;11.85;;
63801;SDS011;49949;43.060;25.624;2022-12-07T16:47:39;34.08;;;12.32;;
63801;SDS011;49949;43.060;25.624;2022-12-07T16:50:05;51.53;;;19.00;;
63801;SDS011;49949;43.060;25.624;2022-12-07T16:52:32;80.15;;;17.00;;
63801;SDS011;49949;43.060;25.624;2022-12-07T16:54:58;34.05;;;13.10;;
63801;SDS011;49949;43.060;25.624;2022-12-07T16:57:24;32.63;;;11.32;;
63801;SDS011;49949;43.060;25.624;2022-12-07T16:59:51;54.90;;;16.48;;
63801;SDS011;49949;43.060;25.624;2022-12-07T17:02:17;36.20;;;14.00;;
63801;SDS011;49949;43.060;25.624;2022-12-07T17:04:43;48.15;;;14.45;;
63801;SDS011;49949;43.060;25.624;2022-12-07T17:07:09;55.08;;;13.70;;
63801;SDS011;49949;43.060;25.624;2022-12-07T17:09:35;46.40;;;15.27;;
63801;SDS011;49949;43.060;25.624;2022-12-07T17:12:02;45.85;;;14.32;;
63801;SDS011;49949;43.060;25.624;2022-12-07T17:14:28;38.20;;;12.80;;
63801;SDS011;49949;43.060;25.624;2022-12-07T17:17:12;29.25;;;9.82;;
63801;SDS011;49949;43.060;25.624;2022-12-07T17:19:37;30.98;;;10.60;;
63801;SDS011;49949;43.060;25.624;2022-12-07T17:22:04;54.42;;;16.60;;